Terminal Aerodrome Forecast
Issued by NWS Bismarck, ND

Home | Current Version | Previous Version | Text Only | Print | Product List | Glossary Off
Versions: 1 2 3 4 5 6 7 8 9 10 11 12 13

000
FTUS43 KBIS 231120
TAFISN
TAF
KISN 231120Z 2312/2412 09011G19KT P6SM OVC015
     FM232200 10016G24KT P6SM OVC020
     FM240400 10012G20KT P6SM VCSH OVC015
     FM240600 10009KT P6SM -RASN OVC010
     FM240900 08005KT 4SM -SNRA OVC008=

USA.gov is the U.S. government's official web portal to all federal, state and local government web resources and services.